Time;durP1;ratioP1;P1;durP2;ratioP2;P2;SDS_P1;SDS_P2;PMS_P1;PMS_P2;Temp;Humidity;BMP_temperature;BMP_pressure;BME280_temperature;BME280_humidity;BME280_pressure;Samples;Min_cycle;Max_cycle;Signal;HPM_P1;HPM_P2
2024/01/20 06:00:31;;;;;;;28.53;24.50;;;;;;;;;;1739755;28;20415;-79
2024/01/20 06:01:22;;;;;;;32.97;27.25;;;;;;;;;;1736337;28;20446;-79
2024/01/20 06:02:14;;;;;;;30.80;27.48;;;;;;;;;;1737820;28;20208;-79
2024/01/20 06:03:05;;;;;;;31.45;26.90;;;;;;;;;;1743280;28;20579;-79
2024/01/20 06:03:56;;;;;;;29.30;25.17;;;;;;;;;;1739486;28;20227;-78
2024/01/20 06:04:48;;;;;;;28.60;23.05;;;;;;;;;;1743424;28;20195;-79
2024/01/20 06:05:39;;;;;;;29.25;23.73;;;;;;;;;;1743236;28;20219;-79
2024/01/20 06:06:30;;;;;;;26.70;23.40;;;;;;;;;;1737403;28;20207;-80
2024/01/20 06:07:22;;;;;;;30.95;24.55;;;;;;;;;;1736457;28;20211;-80
2024/01/20 06:08:14;;;;;;;25.67;22.60;;;;;;;;;;1740668;28;20207;-80
2024/01/20 06:09:05;;;;;;;27.45;23.50;;;;;;;;;;1742905;28;20591;-80
2024/01/20 06:09:57;;;;;;;26.15;23.45;;;;;;;;;;1740610;28;20659;-78
2024/01/20 06:10:48;;;;;;;25.17;22.45;;;;;;;;;;1736103;28;20211;-79
2024/01/20 06:11:40;;;;;;;25.73;23.02;;;;;;;;;;1737085;28;20840;-80
2024/01/20 06:12:31;;;;;;;26.92;23.02;;;;;;;;;;1743397;28;20203;-81
2024/01/20 06:13:22;;;;;;;26.98;24.05;;;;;;;;;;1743050;28;20211;-79
2024/01/20 06:14:15;;;;;;;25.42;22.73;;;;;;;;;;1736565;28;20212;-80
2024/01/20 06:15:06;;;;;;;25.05;22.35;;;;;;;;;;1736418;28;20203;-80
2024/01/20 06:15:59;;;;;;;25.42;22.20;;;;;;;;;;1741328;28;20644;-80
2024/01/20 06:16:51;;;;;;;26.73;22.17;;;;;;;;;;1743197;28;20203;-79
2024/01/20 06:17:42;;;;;;;25.95;23.20;;;;;;;;;;1739816;28;20242;-79
2024/01/20 06:18:34;;;;;;;27.05;22.70;;;;;;;;;;1735845;28;20196;-80
2024/01/20 06:19:25;;;;;;;25.23;22.52;;;;;;;;;;1739058;28;20223;-79
2024/01/20 06:20:16;;;;;;;26.35;23.55;;;;;;;;;;1743732;28;20203;-80
2024/01/20 06:21:08;;;;;;;26.67;23.88;;;;;;;;;;1737493;28;20257;-79
2024/01/20 06:21:59;;;;;;;25.45;22.70;;;;;;;;;;1738187;28;20293;-80
2024/01/20 06:22:50;;;;;;;25.63;22.33;;;;;;;;;;1735738;28;20203;-80
2024/01/20 06:23:42;;;;;;;23.92;21.33;;;;;;;;;;1735597;28;20271;-79
2024/01/20 06:24:34;;;;;;;24.90;21.55;;;;;;;;;;1735885;28;20334;-80
2024/01/20 06:25:25;;;;;;;24.88;22.23;;;;;;;;;;1740175;28;20215;-79
2024/01/20 06:26:17;;;;;;;25.25;22.50;;;;;;;;;;1742415;28;20199;-79
2024/01/20 06:27:08;;;;;;;29.55;25.20;;;;;;;;;;1739234;28;20208;-79
2024/01/20 06:27:59;;;;;;;27.10;24.20;;;;;;;;;;1735276;28;20200;-78
2024/01/20 06:28:51;;;;;;;28.38;25.42;;;;;;;;;;1736659;28;20226;-80
2024/01/20 06:29:42;;;;;;;27.08;24.13;;;;;;;;;;1742314;28;20223;-79
2024/01/20 06:30:33;;;;;;;25.13;22.35;;;;;;;;;;1741765;28;20718;-79
2024/01/20 06:31:29;;;;;;;28.50;24.75;;;;;;;;;;1735492;28;20271;-79
2024/01/20 06:32:20;;;;;;;30.42;26.05;;;;;;;;;;1735296;28;20672;-80
2024/01/20 06:33:11;;;;;;;27.27;24.38;;;;;;;;;;1740862;28;20202;-80
2024/01/20 06:34:03;;;;;;;25.83;23.00;;;;;;;;;;1742113;28;20191;-80
2024/01/20 06:34:54;;;;;;;27.75;23.33;;;;;;;;;;1738044;28;20696;-79
2024/01/20 06:35:45;;;;;;;26.80;22.65;;;;;;;;;;1735156;28;20196;-78
2024/01/20 06:36:37;;;;;;;27.33;24.40;;;;;;;;;;1737618;28;20223;-79
2024/01/20 06:37:28;;;;;;;27.92;23.70;;;;;;;;;;1739952;28;20664;-78
2024/01/20 06:38:19;;;;;;;29.33;24.20;;;;;;;;;;1735177;28;20191;-79
2024/01/20 06:39:11;;;;;;;28.95;24.58;;;;;;;;;;1735143;28;20206;-79
2024/01/20 06:40:03;;;;;;;29.58;25.15;;;;;;;;;;1734815;28;20207;-80
2024/01/20 06:40:54;;;;;;;28.27;23.80;;;;;;;;;;1741634;28;20207;-79
2024/01/20 06:41:46;;;;;;;28.58;24.50;;;;;;;;;;1742156;28;20195;-79
2024/01/20 06:42:37;;;;;;;28.55;24.45;;;;;;;;;;1737080;28;20208;-80
2024/01/20 06:43:28;;;;;;;28.95;25.20;;;;;;;;;;1735159;28;20291;-80
2024/01/20 06:44:22;;;;;;;28.38;23.80;;;;;;;;;;1736856;28;20210;-79
2024/01/20 06:45:13;;;;;;;26.50;23.13;;;;;;;;;;1735030;28;20199;-79
2024/01/20 06:46:05;;;;;;;26.92;23.58;;;;;;;;;;1735010;28;20219;-79
2024/01/20 06:46:57;;;;;;;27.77;23.95;;;;;;;;;;1735208;28;20665;-80
2024/01/20 06:47:48;;;;;;;25.95;23.20;;;;;;;;;;1735733;28;20211;-80
2024/01/20 06:48:41;;;;;;;28.98;23.50;;;;;;;;;;1741302;28;20233;-79
2024/01/20 06:49:32;;;;;;;25.45;22.85;;;;;;;;;;1735143;28;20220;-79
2024/01/20 06:50:23;;;;;;;25.88;23.05;;;;;;;;;;1734569;28;20208;-79
2024/01/20 06:51:15;;;;;;;25.42;22.73;;;;;;;;;;1735170;28;20636;-79
2024/01/20 06:52:06;;;;;;;27.77;23.50;;;;;;;;;;1739628;28;20248;-79
2024/01/20 06:52:57;;;;;;;26.67;23.50;;;;;;;;;;1742200;28;20229;-79
2024/01/20 06:53:52;;;;;;;26.80;23.77;;;;;;;;;;1739053;28;20218;-79
2024/01/20 06:54:43;;;;;;;26.48;23.60;;;;;;;;;;1735079;28;20208;-79
2024/01/20 06:55:34;;;;;;;28.00;24.63;;;;;;;;;;1736861;28;20199;-79
2024/01/20 06:56:26;;;;;;;26.95;23.52;;;;;;;;;;1741984;28;20707;-79
2024/01/20 06:57:17;;;;;;;28.02;23.15;;;;;;;;;;1741742;28;20234;-79
2024/01/20 06:58:09;;;;;;;25.58;22.88;;;;;;;;;;1735258;28;20207;-80
2024/01/20 06:59:01;;;;;;;26.80;23.23;;;;;;;;;;1735088;28;20257;-80
2024/01/20 06:59:52;;;;;;;29.83;25.10;;;;;;;;;;1761042;23;20223;-82
2024/01/20 07:00:43;;;;;;;26.80;23.90;;;;;;;;;;1748409;28;20248;-80
2024/01/20 07:01:35;;;;;;;28.85;24.15;;;;;;;;;;1746970;28;20198;-81
2024/01/20 07:02:30;;;;;;;25.58;22.88;;;;;;;;;;1749723;28;20207;-81
2024/01/20 07:03:22;;;;;;;26.05;23.38;;;;;;;;;;1749717;28;20262;-81
2024/01/20 07:04:14;;;;;;;25.20;22.55;;;;;;;;;;1749711;28;20222;-83
2024/01/20 07:05:05;;;;;;;24.67;22.08;;;;;;;;;;1749699;28;20207;-81
2024/01/20 07:06:00;;;;;;;27.08;22.27;;;;;;;;;;1749713;28;20726;-83
2024/01/20 07:06:51;;;;;;;28.02;22.05;;;;;;;;;;1749585;28;20207;-81
2024/01/20 07:07:43;;;;;;;28.92;22.05;;;;;;;;;;1749488;28;20245;-82
2024/01/20 07:08:34;;;;;;;25.30;22.50;;;;;;;;;;1749770;28;20659;-81
2024/01/20 07:09:26;;;;;;;26.23;21.02;;;;;;;;;;1749544;28;20202;-81
2024/01/20 07:10:17;;;;;;;24.85;21.58;;;;;;;;;;1749284;28;20218;-80
2024/01/20 07:11:08;;;;;;;28.30;21.80;;;;;;;;;;1749412;28;20202;-81
2024/01/20 07:12:00;;;;;;;24.40;21.85;;;;;;;;;;1749700;28;20373;-81
2024/01/20 07:12:52;;;;;;;26.70;22.90;;;;;;;;;;1749729;28;20293;-82
2024/01/20 07:13:44;;;;;;;24.10;21.35;;;;;;;;;;1749702;28;20198;-80
2024/01/20 07:14:35;;;;;;;26.00;23.30;;;;;;;;;;1749742;28;20206;-83
2024/01/20 07:15:26;;;;;;;25.80;23.00;;;;;;;;;;1749868;28;20190;-81
2024/01/20 07:16:20;;;;;;;26.20;23.45;;;;;;;;;;1747610;28;20279;-83
2024/01/20 07:17:11;;;;;;;24.65;22.10;;;;;;;;;;1743041;28;20203;-81
2024/01/20 07:18:05;;;;;;;23.92;21.20;;;;;;;;;;1742895;28;20191;-81
2024/01/20 07:18:56;;;;;;;24.90;22.17;;;;;;;;;;1748695;28;20647;-81
2024/01/20 07:19:47;;;;;;;22.75;20.30;;;;;;;;;;1749733;28;20205;-80
2024/01/20 07:20:39;;;;;;;24.73;21.27;;;;;;;;;;1749172;28;20199;-81
2024/01/20 07:21:30;;;;;;;22.83;20.13;;;;;;;;;;1749313;28;20213;-80
2024/01/20 07:22:21;;;;;;;25.88;22.27;;;;;;;;;;1749465;28;20227;-81
2024/01/20 07:23:13;;;;;;;25.83;22.48;;;;;;;;;;1749358;28;20195;-82
2024/01/20 07:24:04;;;;;;;26.92;23.70;;;;;;;;;;1749425;28;20205;-81
2024/01/20 07:24:56;;;;;;;27.45;24.25;;;;;;;;;;1744535;28;20662;-81
2024/01/20 07:25:48;;;;;;;27.48;24.50;;;;;;;;;;1742342;28;20203;-81
2024/01/20 07:26:39;;;;;;;29.83;25.85;;;;;;;;;;1746680;28;20222;-80
2024/01/20 07:27:30;;;;;;;28.08;25.02;;;;;;;;;;1743679;28;20214;-82
2024/01/20 07:28:22;;;;;;;27.55;24.27;;;;;;;;;;1745067;28;20289;-80
2024/01/20 07:29:13;;;;;;;28.27;24.23;;;;;;;;;;1743256;28;20210;-80
2024/01/20 07:30:04;;;;;;;27.75;23.77;;;;;;;;;;1746362;28;20233;-82
2024/01/20 07:30:57;;;;;;;25.10;22.55;;;;;;;;;;1750322;28;20337;-80
2024/01/20 07:31:50;;;;;;;24.50;21.90;;;;;;;;;;1750364;28;20198;-83
2024/01/20 07:32:42;;;;;;;25.63;22.60;;;;;;;;;;1749757;28;20256;-80
2024/01/20 07:33:34;;;;;;;25.52;22.80;;;;;;;;;;1749161;28;20583;-82
2024/01/20 07:34:25;;;;;;;25.20;21.75;;;;;;;;;;1748044;28;20203;-75
2024/01/20 07:35:18;;;;;;;24.52;20.17;;;;;;;;;;1748344;28;20205;-75
2024/01/20 07:36:09;;;;;;;25.10;22.48;;;;;;;;;;1748355;28;20218;-76
2024/01/20 07:37:00;;;;;;;24.50;21.83;;;;;;;;;;1748386;28;20194;-75
2024/01/20 07:37:52;;;;;;;26.23;23.02;;;;;;;;;;1748298;28;20311;-76
2024/01/20 07:38:43;;;;;;;28.98;25.60;;;;;;;;;;1748266;28;20210;-76
2024/01/20 07:39:34;;;;;;;32.78;26.23;;;;;;;;;;1748318;28;20558;-75
2024/01/20 07:40:26;;;;;;;28.85;25.73;;;;;;;;;;1747866;28;20217;-76
2024/01/20 07:41:18;;;;;;;28.25;24.00;;;;;;;;;;1748481;28;20213;-76
2024/01/20 07:42:09;;;;;;;28.95;24.20;;;;;;;;;;1747049;28;20194;-77
2024/01/20 07:43:01;;;;;;;24.98;22.38;;;;;;;;;;1741495;28;20195;-75
2024/01/20 07:43:52;;;;;;;26.05;23.30;;;;;;;;;;1748243;28;20209;-76
2024/01/20 07:44:44;;;;;;;31.48;26.85;;;;;;;;;;1741873;28;20199;-76
2024/01/20 07:45:35;;;;;;;42.65;33.70;;;;;;;;;;1747141;28;20217;-76
2024/01/20 07:46:27;;;;;;;28.05;24.45;;;;;;;;;;1748401;28;20594;-77
2024/01/20 07:47:18;;;;;;;28.48;23.27;;;;;;;;;;1748522;28;20210;-76
2024/01/20 07:48:10;;;;;;;25.02;22.38;;;;;;;;;;1748398;28;20281;-77
2024/01/20 07:49:03;;;;;;;25.42;22.60;;;;;;;;;;1748629;28;20222;-79
2024/01/20 07:49:54;;;;;;;25.83;23.02;;;;;;;;;;1748250;28;20199;-77
2024/01/20 07:50:46;;;;;;;29.33;24.95;;;;;;;;;;1748296;28;20209;-83
2024/01/20 07:51:37;;;;;;;27.73;23.50;;;;;;;;;;1749002;28;20202;-81
2024/01/20 07:52:29;;;;;;;25.67;22.42;;;;;;;;;;1745593;28;20616;-80
2024/01/20 07:53:20;;;;;;;26.00;23.30;;;;;;;;;;1750686;28;20210;-80
2024/01/20 07:54:12;;;;;;;27.60;24.65;;;;;;;;;;1754755;28;20288;-81
2024/01/20 07:55:03;;;;;;;26.20;23.50;;;;;;;;;;1743901;28;20210;-81
2024/01/20 07:55:54;;;;;;;26.20;22.88;;;;;;;;;;1742214;28;20195;-83
2024/01/20 07:56:46;;;;;;;25.05;21.92;;;;;;;;;;1745687;28;20202;-81
2024/01/20 07:57:38;;;;;;;25.73;22.98;;;;;;;;;;1748689;28;20210;-82
2024/01/20 07:58:29;;;;;;;25.05;22.35;;;;;;;;;;1746755;28;20703;-81
2024/01/20 07:59:21;;;;;;;26.88;23.60;;;;;;;;;;1744101;28;20195;-81
2024/01/20 08:00:12;;;;;;;27.73;24.13;;;;;;;;;;1744916;28;20218;-81
2024/01/20 08:01:04;;;;;;;27.88;24.98;;;;;;;;;;1746523;28;20191;-81
2024/01/20 08:01:56;;;;;;;32.30;23.88;;;;;;;;;;1743798;28;20202;-82
2024/01/20 08:02:48;;;;;;;27.75;24.75;;;;;;;;;;1748714;28;20281;-82
2024/01/20 08:03:39;;;;;;;29.58;26.35;;;;;;;;;;1747084;28;20218;-82
2024/01/20 08:04:32;;;;;;;32.05;28.15;;;;;;;;;;1747086;28;20734;-81
2024/01/20 08:05:24;;;;;;;32.28;28.88;;;;;;;;;;1749563;28;20206;-82
2024/01/20 08:06:16;;;;;;;32.95;28.10;;;;;;;;;;1749692;28;20260;-82
2024/01/20 08:07:07;;;;;;;32.22;27.05;;;;;;;;;;1749155;28;20230;-82
2024/01/20 08:07:58;;;;;;;29.83;26.45;;;;;;;;;;1746990;28;20192;-81
2024/01/20 08:08:50;;;;;;;30.88;27.17;;;;;;;;;;1749103;28;20190;-81
2024/01/20 08:09:41;;;;;;;30.60;27.15;;;;;;;;;;1747142;28;20574;-82
2024/01/20 08:10:33;;;;;;;34.28;29.52;;;;;;;;;;1741796;28;20636;-81
2024/01/20 08:11:24;;;;;;;38.85;32.83;;;;;;;;;;1746393;28;20272;-81
2024/01/20 08:12:15;;;;;;;32.17;28.67;;;;;;;;;;1743273;28;20290;-82
2024/01/20 08:13:07;;;;;;;30.65;26.92;;;;;;;;;;1742215;28;20204;-81
2024/01/20 08:13:58;;;;;;;34.47;28.65;;;;;;;;;;1747022;28;20565;-82
2024/01/20 08:14:49;;;;;;;32.03;27.35;;;;;;;;;;1745801;28;20191;-81
2024/01/20 08:15:41;;;;;;;30.92;27.52;;;;;;;;;;1746670;28;20195;-84
2024/01/20 08:16:33;;;;;;;29.77;25.83;;;;;;;;;;1742852;28;20195;-84
2024/01/20 08:17:24;;;;;;;31.88;27.65;;;;;;;;;;1743138;28;20678;-81
2024/01/20 08:18:16;;;;;;;31.52;27.98;;;;;;;;;;1746586;28;20245;-82
2024/01/20 08:19:07;;;;;;;29.52;26.00;;;;;;;;;;1747350;28;20195;-82
2024/01/20 08:20:00;;;;;;;27.50;24.40;;;;;;;;;;1747919;28;20190;-81
2024/01/20 08:20:52;;;;;;;30.80;24.90;;;;;;;;;;1742403;28;20632;-81
2024/01/20 08:21:43;;;;;;;27.63;24.30;;;;;;;;;;1747319;28;20202;-81
2024/01/20 08:22:35;;;;;;;28.63;24.40;;;;;;;;;;1746612;28;20191;-81
2024/01/20 08:23:26;;;;;;;27.95;24.38;;;;;;;;;;1746026;28;20208;-81
2024/01/20 08:24:17;;;;;;;26.40;23.48;;;;;;;;;;1749021;28;20202;-83
2024/01/20 08:25:10;;;;;;;28.70;24.20;;;;;;;;;;1748664;28;20197;-83
2024/01/20 08:26:01;;;;;;;26.20;23.48;;;;;;;;;;1748688;28;20207;-83
2024/01/20 08:26:53;;;;;;;25.73;23.02;;;;;;;;;;1748812;28;20210;-83
2024/01/20 08:27:44;;;;;;;26.67;23.65;;;;;;;;;;1748729;28;20202;-83
2024/01/20 08:28:35;;;;;;;26.40;23.60;;;;;;;;;;1748671;28;20199;-85
2024/01/20 08:29:27;;;;;;;27.77;24.25;;;;;;;;;;1748448;28;20198;-83
2024/01/20 08:30:18;;;;;;;27.98;24.00;;;;;;;;;;1747867;28;20222;-83
2024/01/20 08:31:09;;;;;;;27.45;24.55;;;;;;;;;;1743941;28;20217;-83
2024/01/20 08:32:01;;;;;;;31.58;25.98;;;;;;;;;;1741593;28;20190;-83
2024/01/20 08:32:52;;;;;;;32.97;26.30;;;;;;;;;;1744783;28;20207;-83
2024/01/20 08:33:43;;;;;;;29.30;25.10;;;;;;;;;;1748472;28;20245;-83
2024/01/20 08:34:35;;;;;;;27.00;24.27;;;;;;;;;;1748625;28;20202;-83
2024/01/20 08:35:28;;;;;;;27.75;24.75;;;;;;;;;;1748548;28;20217;-83
2024/01/20 08:36:19;;;;;;;30.65;26.83;;;;;;;;;;1746161;28;20594;-87
2024/01/20 08:37:11;;;;;;;33.80;30.10;;;;;;;;;;1744512;28;20192;-82
2024/01/20 08:38:02;;;;;;;29.60;26.38;;;;;;;;;;1743808;28;20207;-82
2024/01/20 08:38:53;;;;;;;29.02;25.85;;;;;;;;;;1746639;28;20194;-85
2024/01/20 08:39:45;;;;;;;29.58;26.40;;;;;;;;;;1748645;28;20205;-83
2024/01/20 08:40:36;;;;;;;32.25;27.33;;;;;;;;;;1747792;28;20663;-83
2024/01/20 08:41:27;;;;;;;30.08;24.50;;;;;;;;;;1748472;28;20252;-83
2024/01/20 08:42:19;;;;;;;31.08;26.35;;;;;;;;;;1746073;28;20256;-83
2024/01/20 08:43:11;;;;;;;29.33;25.15;;;;;;;;;;1743458;28;20199;-83
2024/01/20 08:44:03;;;;;;;32.22;27.92;;;;;;;;;;1742281;28;20207;-84
2024/01/20 08:44:54;;;;;;;26.90;24.20;;;;;;;;;;1742397;28;20203;-83
2024/01/20 08:45:45;;;;;;;26.92;23.65;;;;;;;;;;1748341;28;20202;-83
2024/01/20 08:46:37;;;;;;;26.90;24.00;;;;;;;;;;1747739;28;20229;-83
2024/01/20 08:47:28;;;;;;;26.80;23.50;;;;;;;;;;1748559;28;20210;-83
2024/01/20 08:48:19;;;;;;;26.38;23.50;;;;;;;;;;1748236;28;20224;-83
2024/01/20 08:49:11;;;;;;;28.23;24.23;;;;;;;;;;1748445;28;20539;-83
2024/01/20 08:50:02;;;;;;;31.23;23.52;;;;;;;;;;1746595;28;20238;-85
2024/01/20 08:50:55;;;;;;;28.30;23.80;;;;;;;;;;1746391;28;20660;-85
2024/01/20 08:51:47;;;;;;;30.63;26.20;;;;;;;;;;1748319;28;20209;-83
2024/01/20 08:52:39;;;;;;;31.67;26.48;;;;;;;;;;1748434;28;20199;-83
2024/01/20 08:53:32;;;;;;;31.48;26.55;;;;;;;;;;1748147;28;20203;-83
2024/01/20 08:54:23;;;;;;;29.70;25.75;;;;;;;;;;1746138;28;21052;-85
2024/01/20 08:55:14;;;;;;;28.58;24.40;;;;;;;;;;1748140;28;20582;-83
2024/01/20 08:56:07;;;;;;;29.35;24.45;;;;;;;;;;1747057;28;20201;-84
2024/01/20 08:56:58;;;;;;;26.23;23.40;;;;;;;;;;1748293;28;20199;-83
2024/01/20 08:57:49;;;;;;;30.42;25.05;;;;;;;;;;1743925;28;20199;-85
2024/01/20 08:58:41;;;;;;;30.05;26.42;;;;;;;;;;1741442;28;20205;-83
2024/01/20 08:59:32;;;;;;;27.48;24.20;;;;;;;;;;1744556;28;20648;-84
2024/01/20 09:00:23;;;;;;;31.50;27.58;;;;;;;;;;1740821;28;20234;-84
2024/01/20 09:01:17;;;;;;;30.85;26.52;;;;;;;;;;1743604;28;20289;-83
2024/01/20 09:02:08;;;;;;;29.17;25.88;;;;;;;;;;1741286;28;20702;-84
2024/01/20 09:02:59;;;;;;;28.80;24.13;;;;;;;;;;1742513;28;20711;-83
2024/01/20 09:03:51;;;;;;;30.55;27.25;;;;;;;;;;1741697;28;20295;-83
2024/01/20 09:04:43;;;;;;;28.05;24.63;;;;;;;;;;1748362;28;20198;-84
2024/01/20 09:05:34;;;;;;;27.80;24.80;;;;;;;;;;1742553;28;20712;-84
2024/01/20 09:06:27;;;;;;;29.52;25.50;;;;;;;;;;1745691;28;20202;-83
2024/01/20 09:07:20;;;;;;;29.30;24.98;;;;;;;;;;1744063;28;20207;-83
2024/01/20 09:08:11;;;;;;;28.92;24.83;;;;;;;;;;1745116;28;20198;-83
2024/01/20 09:09:03;;;;;;;28.50;25.02;;;;;;;;;;1747322;28;20608;-83
2024/01/20 09:09:56;;;;;;;29.73;26.48;;;;;;;;;;1747561;28;20215;-84
2024/01/20 09:10:48;;;;;;;28.73;24.63;;;;;;;;;;1742637;28;20199;-83
2024/01/20 09:11:39;;;;;;;29.80;26.55;;;;;;;;;;1748524;28;20209;-83
2024/01/20 09:12:30;;;;;;;31.92;27.52;;;;;;;;;;1742876;28;20203;-83
2024/01/20 09:13:22;;;;;;;30.75;26.63;;;;;;;;;;1743790;28;20207;-82
2024/01/20 09:14:14;;;;;;;30.45;25.90;;;;;;;;;;1741490;28;20258;-83
2024/01/20 09:15:05;;;;;;;28.00;24.98;;;;;;;;;;1746772;28;20207;-83
2024/01/20 09:15:57;;;;;;;30.58;27.23;;;;;;;;;;1747519;28;20636;-83
2024/01/20 09:16:48;;;;;;;30.83;25.67;;;;;;;;;;1745273;28;20580;-83
2024/01/20 09:17:39;;;;;;;28.85;25.75;;;;;;;;;;1741391;28;20199;-82
2024/01/20 09:18:32;;;;;;;31.75;26.35;;;;;;;;;;1745185;28;20202;-83
2024/01/20 09:19:23;;;;;;;29.63;24.92;;;;;;;;;;1746165;28;20692;-83
2024/01/20 09:20:15;;;;;;;29.05;25.88;;;;;;;;;;1747183;28;20233;-84
2024/01/20 09:21:10;;;;;;;30.52;25.55;;;;;;;;;;1743915;28;20206;-84
2024/01/20 09:22:03;;;;;;;29.25;25.10;;;;;;;;;;1746854;28;20207;-83
2024/01/20 09:22:54;;;;;;;34.05;26.73;;;;;;;;;;1745822;28;20659;-84
2024/01/20 09:23:46;;;;;;;30.23;26.95;;;;;;;;;;1748276;28;20257;-83
2024/01/20 09:24:38;;;;;;;36.40;29.60;;;;;;;;;;1748442;28;20285;-83
2024/01/20 09:25:29;;;;;;;35.15;30.63;;;;;;;;;;1743068;28;20222;-83
2024/01/20 09:26:21;;;;;;;32.08;28.10;;;;;;;;;;1745508;28;20233;-84
2024/01/20 09:27:12;;;;;;;35.05;30.05;;;;;;;;;;1745260;28;20552;-83
2024/01/20 09:28:05;;;;;;;40.03;30.70;;;;;;;;;;1743995;28;20289;-83
2024/01/20 09:28:58;;;;;;;30.55;26.65;;;;;;;;;;1748292;28;20732;-84
2024/01/20 09:29:49;;;;;;;33.50;29.58;;;;;;;;;;1746256;28;20289;-83
2024/01/20 09:30:40;;;;;;;30.83;26.17;;;;;;;;;;1745912;28;20190;-86
2024/01/20 09:31:32;;;;;;;33.45;29.13;;;;;;;;;;1747808;28;20233;-83
2024/01/20 09:32:23;;;;;;;29.27;26.08;;;;;;;;;;1746714;28;20202;-83
2024/01/20 09:33:14;;;;;;;34.60;27.58;;;;;;;;;;1748036;28;20198;-84
2024/01/20 09:34:06;;;;;;;32.90;27.10;;;;;;;;;;1746131;28;20194;-83
2024/01/20 09:34:58;;;;;;;30.55;26.75;;;;;;;;;;1747991;28;20667;-82
2024/01/20 09:35:49;;;;;;;29.52;26.42;;;;;;;;;;1747509;28;20202;-83
2024/01/20 09:36:41;;;;;;;30.42;26.80;;;;;;;;;;1741504;28;20203;-87
2024/01/20 09:37:36;;;;;;;28.48;25.35;;;;;;;;;;1743314;28;20214;-86
2024/01/20 09:38:28;;;;;;;32.22;26.35;;;;;;;;;;1743115;28;20231;-82
2024/01/20 09:39:20;;;;;;;30.15;26.83;;;;;;;;;;1742258;28;20199;-83
2024/01/20 09:40:12;;;;;;;30.77;27.10;;;;;;;;;;1747609;28;20297;-82
2024/01/20 09:41:09;;;;;;;29.60;26.38;;;;;;;;;;1748161;28;20194;-82
2024/01/20 09:42:00;;;;;;;29.80;26.20;;;;;;;;;;1741186;28;20307;-82
2024/01/20 09:42:53;;;;;;;28.38;24.25;;;;;;;;;;1741373;28;20210;-82
2024/01/20 09:43:44;;;;;;;28.70;25.50;;;;;;;;;;1742125;28;20214;-83
2024/01/20 09:44:35;;;;;;;27.67;24.67;;;;;;;;;;1747668;28;20282;-83
2024/01/20 09:45:28;;;;;;;28.48;25.45;;;;;;;;;;1748437;28;20201;-84
2024/01/20 09:46:20;;;;;;;28.40;25.40;;;;;;;;;;1748530;28;20248;-82
2024/01/20 09:47:11;;;;;;;26.27;23.48;;;;;;;;;;1748452;28;20230;-82
2024/01/20 09:48:03;;;;;;;28.35;25.25;;;;;;;;;;1748895;28;20809;-82
2024/01/20 09:48:56;;;;;;;28.80;25.38;;;;;;;;;;1747034;28;20199;-83
2024/01/20 09:49:47;;;;;;;30.50;26.45;;;;;;;;;;1741920;28;20282;-81
2024/01/20 09:50:39;;;;;;;30.73;25.08;;;;;;;;;;1747730;28;20543;-83
2024/01/20 09:51:31;;;;;;;28.08;25.10;;;;;;;;;;1741821;28;20214;-81
2024/01/20 09:52:26;;;;;;;30.48;24.52;;;;;;;;;;1741584;28;20227;-81
2024/01/20 09:53:19;;;;;;;27.55;24.75;;;;;;;;;;1747546;28;20569;-82
2024/01/20 09:54:11;;;;;;;29.33;25.25;;;;;;;;;;1748419;28;20202;-83
2024/01/20 09:55:06;;;;;;;28.45;25.30;;;;;;;;;;1743417;28;20200;-81
2024/01/20 09:55:59;;;;;;;26.15;23.35;;;;;;;;;;1741543;28;20196;-81
2024/01/20 09:56:50;;;;;;;29.45;23.48;;;;;;;;;;1745307;28;20683;-84
2024/01/20 09:57:42;;;;;;;27.58;24.67;;;;;;;;;;1749381;28;20201;-82
2024/01/20 09:58:35;;;;;;;29.05;25.80;;;;;;;;;;1743588;28;20191;-84
2024/01/20 09:59:27;;;;;;;30.00;26.80;;;;;;;;;;1742690;28;20291;-83
2024/01/20 10:00:19;;;;;;;30.52;25.95;;;;;;;;;;1743359;28;20257;-81
2024/01/20 10:01:11;;;;;;;28.73;25.52;;;;;;;;;;1749867;28;20210;-82
2024/01/20 10:02:02;;;;;;;26.35;23.25;;;;;;;;;;1750234;28;20202;-82
2024/01/20 10:02:53;;;;;;;26.58;23.17;;;;;;;;;;1743275;28;20203;-83
2024/01/20 10:03:45;;;;;;;27.98;24.98;;;;;;;;;;1749768;28;20234;-82
2024/01/20 10:04:40;;;;;;;29.40;25.13;;;;;;;;;;1744418;28;20203;-83
2024/01/20 10:05:31;;;;;;;26.85;23.92;;;;;;;;;;1742878;28;20203;-83
2024/01/20 10:06:24;;;;;;;26.52;23.73;;;;;;;;;;1743637;28;20452;-83
2024/01/20 10:07:26;;;;;;;26.45;22.85;;;;;;;;;;1746371;28;20214;-82
2024/01/20 10:08:20;;;;;;;26.48;23.58;;;;;;;;;;1746210;28;20230;-83
2024/01/20 10:09:11;;;;;;;28.10;24.13;;;;;;;;;;1745888;28;20199;-83
2024/01/20 10:10:02;;;;;;;32.67;25.40;;;;;;;;;;1748725;28;20218;-83
2024/01/20 10:11:03;;;;;;;25.63;22.92;;;;;;;;;;1749473;28;20202;-82
2024/01/20 10:11:55;;;;;;;28.85;24.58;;;;;;;;;;1746870;28;20203;-82
2024/01/20 10:12:48;;;;;;;31.70;26.67;;;;;;;;;;1742894;28;20213;-82
2024/01/20 10:13:40;;;;;;;29.17;24.85;;;;;;;;;;1744670;28;20202;-82
2024/01/20 10:14:31;;;;;;;30.52;26.08;;;;;;;;;;1750292;28;20202;-84
2024/01/20 10:15:25;;;;;;;27.40;24.55;;;;;;;;;;1749797;28;20552;-83
2024/01/20 10:16:17;;;;;;;27.58;24.60;;;;;;;;;;1749838;28;20663;-84
2024/01/20 10:17:08;;;;;;;31.27;25.35;;;;;;;;;;1749995;28;20226;-81
2024/01/20 10:17:59;;;;;;;39.92;27.77;;;;;;;;;;1750045;28;20198;-80
2024/01/20 10:18:52;;;;;;;33.60;26.42;;;;;;;;;;1749648;28;20195;-82
2024/01/20 10:19:43;;;;;;;29.63;25.45;;;;;;;;;;1748959;28;20202;-84
2024/01/20 10:20:35;;;;;;;29.27;24.17;;;;;;;;;;1749019;28;20731;-84
2024/01/20 10:21:27;;;;;;;28.63;24.33;;;;;;;;;;1750003;28;20206;-83
2024/01/20 10:22:19;;;;;;;29.05;24.73;;;;;;;;;;1749823;28;20210;-84
2024/01/20 10:23:11;;;;;;;27.13;24.23;;;;;;;;;;1749294;28;20225;-83
2024/01/20 10:24:04;;;;;;;28.75;25.02;;;;;;;;;;1742938;28;20211;-85
2024/01/20 10:24:55;;;;;;;30.23;24.10;;;;;;;;;;1742916;28;20821;-85
2024/01/20 10:25:47;;;;;;;27.38;23.95;;;;;;;;;;1743989;28;20192;-83
2024/01/20 10:26:41;;;;;;;26.60;23.80;;;;;;;;;;1742974;28;20203;-84
2024/01/20 10:27:32;;;;;;;26.60;23.33;;;;;;;;;;1745283;28;20237;-84
2024/01/20 10:28:24;;;;;;;30.08;24.92;;;;;;;;;;1748780;28;20248;-83
2024/01/20 10:29:16;;;;;;;30.27;23.30;;;;;;;;;;1745408;28;20203;-83
2024/01/20 10:30:09;;;;;;;28.65;23.83;;;;;;;;;;1742000;28;20203;-83
2024/01/20 10:31:06;;;;;;;26.58;23.75;;;;;;;;;;1744821;28;20206;-86
2024/01/20 10:31:58;;;;;;;25.30;21.85;;;;;;;;;;1743528;28;20209;-85
2024/01/20 10:32:50;;;;;;;25.48;22.83;;;;;;;;;;1745940;28;20244;-84
2024/01/20 10:33:41;;;;;;;26.25;23.45;;;;;;;;;;1749350;28;20214;-85
2024/01/20 10:34:32;;;;;;;27.45;23.10;;;;;;;;;;1748553;28;20565;-85
2024/01/20 10:35:24;;;;;;;28.73;24.00;;;;;;;;;;1742368;28;20568;-85
2024/01/20 10:36:16;;;;;;;25.95;23.25;;;;;;;;;;1742408;28;20214;-86
2024/01/20 10:37:10;;;;;;;26.45;23.73;;;;;;;;;;1748260;28;20198;-85
2024/01/20 10:38:02;;;;;;;24.58;22.00;;;;;;;;;;1748778;28;20204;-86
2024/01/20 10:38:54;;;;;;;25.95;23.23;;;;;;;;;;1743895;28;20211;-86
2024/01/20 10:39:47;;;;;;;23.40;20.85;;;;;;;;;;1742068;28;20203;-85
2024/01/20 10:40:41;;;;;;;22.92;20.45;;;;;;;;;;1745347;28;20206;-84
2024/01/20 10:41:32;;;;;;;24.73;22.02;;;;;;;;;;1745897;28;20195;-85
2024/01/20 10:42:27;;;;;;;23.60;20.27;;;;;;;;;;1742536;28;20225;-86
2024/01/20 10:43:18;;;;;;;24.35;21.75;;;;;;;;;;1742464;28;20210;-84
2024/01/20 10:44:12;;;;;;;24.20;21.13;;;;;;;;;;1744758;28;20191;-85
2024/01/20 10:45:04;;;;;;;23.63;21.13;;;;;;;;;;1748441;28;20655;-85
2024/01/20 10:46:08;;;;;;;22.90;20.15;;;;;;;;;;1748604;28;20199;-85
2024/01/20 10:47:03;;;;;;;25.55;21.88;;;;;;;;;;1742136;28;20579;-86
2024/01/20 10:48:01;;;;;;;24.25;21.75;;;;;;;;;;1743807;28;20196;-84
2024/01/20 10:48:53;;;;;;;23.05;20.55;;;;;;;;;;1742259;28;20207;-85
2024/01/20 10:49:45;;;;;;;25.70;22.95;;;;;;;;;;1742399;28;20231;-84
2024/01/20 10:50:39;;;;;;;24.83;22.10;;;;;;;;;;1748691;28;20670;-83
2024/01/20 10:51:31;;;;;;;25.05;22.35;;;;;;;;;;1745468;28;20206;-84
2024/01/20 10:52:22;;;;;;;27.52;22.80;;;;;;;;;;1748998;28;20626;-84
2024/01/20 10:53:15;;;;;;;26.67;23.88;;;;;;;;;;1749502;28;20562;-84
2024/01/20 10:54:07;;;;;;;25.55;21.48;;;;;;;;;;1749491;28;20211;-83
2024/01/20 10:55:01;;;;;;;23.92;20.75;;;;;;;;;;1749122;28;20666;-83
2024/01/20 10:55:52;;;;;;;23.27;20.52;;;;;;;;;;1749388;28;20211;-84
2024/01/20 10:56:43;;;;;;;22.90;20.45;;;;;;;;;;1748878;28;20571;-83
2024/01/20 10:57:35;;;;;;;27.10;22.73;;;;;;;;;;1747322;28;20206;-83
2024/01/20 10:58:31;;;;;;;23.08;20.67;;;;;;;;;;1742829;28;20206;-83
2024/01/20 10:59:25;;;;;;;23.38;20.88;;;;;;;;;;1744123;28;20563;-83
2024/01/20 11:00:17;;;;;;;24.10;21.50;;;;;;;;;;1748761;28;20230;-85
2024/01/20 11:01:11;;;;;;;36.95;30.63;;;;;;;;;;1749757;28;20725;-83
2024/01/20 11:02:02;;;;;;;29.48;25.05;;;;;;;;;;1742804;28;20256;-83